createdAt,value
2022-08-26T00:02:11.832Z,5.72
2022-08-26T00:04:40.061Z,6.68
2022-08-26T00:07:09.848Z,5.93
2022-08-26T00:09:39.132Z,5.80
2022-08-26T00:12:12.236Z,5.40
2022-08-26T00:14:42.059Z,6.43
2022-08-26T00:17:10.788Z,7.13
2022-08-26T00:19:39.129Z,7.50
2022-08-26T00:22:07.598Z,6.65
2022-08-26T00:24:37.235Z,6.40
2022-08-26T00:27:06.361Z,6.93
2022-08-26T00:29:37.477Z,8.43
2022-08-26T00:32:06.683Z,11.25
2022-08-26T00:34:35.366Z,6.80
2022-08-26T00:37:03.639Z,5.25
2022-08-26T00:39:38.231Z,7.03
2022-08-26T00:42:06.685Z,7.50
2022-08-26T00:44:34.842Z,6.32
2022-08-26T00:47:06.595Z,6.35
2022-08-26T00:49:39.586Z,6.55
2022-08-26T00:52:12.086Z,7.45
2022-08-26T00:54:47.037Z,5.97
2022-08-26T00:57:18.769Z,7.75
2022-08-26T00:59:51.462Z,5.45
2022-08-26T01:02:20.849Z,9.00
2022-08-26T01:04:55.758Z,6.25
2022-08-26T01:07:27.543Z,6.43
2022-08-26T01:10:01.447Z,5.43
2022-08-26T01:12:32.366Z,6.82
2022-08-26T01:15:01.531Z,6.53
2022-08-26T01:17:29.893Z,6.85
2022-08-26T01:20:07.572Z,5.72
2022-08-26T01:22:50.413Z,7.30
2022-08-26T01:25:21.210Z,7.32
2022-08-26T01:27:49.900Z,7.53
2022-08-26T01:30:19.139Z,6.57
2022-08-26T01:32:48.308Z,8.30
2022-08-26T01:35:16.719Z,8.50
2022-08-26T01:37:50.927Z,9.73
2022-08-26T01:40:25.952Z,7.43
2022-08-26T01:42:55.346Z,8.15
2022-08-26T01:45:27.293Z,5.85
2022-08-26T01:47:58.285Z,7.55
2022-08-26T01:50:31.877Z,6.88
2022-08-26T01:53:05.875Z,7.18
2022-08-26T01:55:35.420Z,8.85
2022-08-26T01:58:09.773Z,6.22
2022-08-26T02:00:38.844Z,5.65
2022-08-26T02:03:17.741Z,7.97
2022-08-26T02:05:48.820Z,6.35
2022-08-26T02:08:24.769Z,10.20
2022-08-26T02:10:54.842Z,6.68
2022-08-26T02:13:25.649Z,6.97
2022-08-26T02:15:54.346Z,7.47
2022-08-26T02:18:22.997Z,10.43
2022-08-26T02:20:53.462Z,6.10
2022-08-26T02:23:24.036Z,7.72
2022-08-26T02:25:57.085Z,6.50
2022-08-26T02:28:28.563Z,9.15
2022-08-26T02:30:56.903Z,8.52
2022-08-26T02:33:25.082Z,7.35
2022-08-26T02:35:53.295Z,6.65
2022-08-26T02:38:23.402Z,7.13
2022-08-26T02:40:51.909Z,6.30
2022-08-26T02:43:31.545Z,9.63
2022-08-26T02:46:02.444Z,6.37
2022-08-26T02:48:30.831Z,8.45
2022-08-26T02:51:00.779Z,7.50
2022-08-26T02:53:31.824Z,6.90
2022-08-26T02:56:02.160Z,7.60
2022-08-26T02:58:31.789Z,8.00
2022-08-26T03:01:00.008Z,7.60
2022-08-26T03:03:30.180Z,7.13
2022-08-26T03:05:58.819Z,6.45
2022-08-26T03:08:26.925Z,6.22
2022-08-26T03:10:56.808Z,7.57
2022-08-26T03:13:25.004Z,9.10
2022-08-26T03:15:53.322Z,6.85
2022-08-26T03:18:21.616Z,10.57
2022-08-26T03:20:49.765Z,9.80
2022-08-26T03:23:18.536Z,9.65
2022-08-26T03:25:50.965Z,9.93
2022-08-26T03:28:20.652Z,7.00
2022-08-26T03:30:49.188Z,7.60
2022-08-26T03:33:17.418Z,9.38
2022-08-26T03:35:47.804Z,9.55
2022-08-26T03:38:19.185Z,8.48
2022-08-26T03:40:47.702Z,8.57
2022-08-26T03:43:17.206Z,8.43
2022-08-26T03:45:46.763Z,6.80
2022-08-26T03:48:15.389Z,9.00
2022-08-26T03:50:44.200Z,9.48
2022-08-26T03:53:12.938Z,9.20
2022-08-26T03:55:42.274Z,9.70
2022-08-26T03:58:12.213Z,6.97
2022-08-26T04:00:40.683Z,10.55
2022-08-26T04:03:15.661Z,9.30
2022-08-26T04:05:46.250Z,10.20
2022-08-26T04:08:14.934Z,8.02
2022-08-26T04:10:43.537Z,7.63
2022-08-26T04:13:12.161Z,9.60
2022-08-26T04:15:40.589Z,7.38
2022-08-26T04:18:10.196Z,9.63
2022-08-26T04:20:38.320Z,10.52
2022-08-26T04:23:07.141Z,7.97
2022-08-26T04:25:35.865Z,8.05
2022-08-26T04:28:04.428Z,8.85
2022-08-26T04:30:33.418Z,8.35
2022-08-26T04:33:04.542Z,7.25
2022-08-26T04:35:44.035Z,9.88
2022-08-26T04:38:12.432Z,9.23
2022-08-26T04:40:46.663Z,7.80
2022-08-26T04:43:15.383Z,9.63
2022-08-26T04:45:44.005Z,7.63
2022-08-26T04:48:12.198Z,7.68
2022-08-26T04:50:49.349Z,11.23
2022-08-26T04:53:17.738Z,10.45
2022-08-26T04:55:46.030Z,8.93
2022-08-26T04:58:17.182Z,7.67
2022-08-26T05:00:45.823Z,7.55
2022-08-26T05:03:14.633Z,9.85
2022-08-26T05:05:43.527Z,10.25
2022-08-26T05:08:15.270Z,7.80
2022-08-26T05:10:45.557Z,8.82
2022-08-26T05:13:15.504Z,7.75
2022-08-26T05:15:44.610Z,8.82
2022-08-26T05:18:14.938Z,8.55
2022-08-26T05:20:45.377Z,8.18
2022-08-26T05:23:17.584Z,9.95
2022-08-26T05:25:47.999Z,11.07
2022-08-26T05:28:18.577Z,10.68
2022-08-26T05:30:47.353Z,10.98
2022-08-26T05:33:16.355Z,10.45
2022-08-26T05:35:46.588Z,9.05
2022-08-26T05:38:18.883Z,9.45
2022-08-26T05:40:49.106Z,9.23
2022-08-26T05:43:23.193Z,7.40
2022-08-26T05:45:52.015Z,9.32
2022-08-26T05:48:22.853Z,10.05
2022-08-26T05:50:54.358Z,8.20
2022-08-26T05:53:26.133Z,9.90
2022-08-26T05:55:55.179Z,10.77
2022-08-26T05:58:24.951Z,9.85
2022-08-26T06:01:00.964Z,8.77
2022-08-26T06:03:30.081Z,13.30
2022-08-26T06:05:58.205Z,11.13
2022-08-26T06:08:27.771Z,8.63
2022-08-26T06:10:58.068Z,10.27
2022-08-26T06:13:27.864Z,10.90
2022-08-26T06:16:00.626Z,10.20
2022-08-26T06:18:34.696Z,11.18
2022-08-26T06:21:13.878Z,8.27
2022-08-26T06:24:01.495Z,13.48
2022-08-26T06:26:30.232Z,9.93
2022-08-26T06:28:58.704Z,9.13
2022-08-26T06:31:28.266Z,9.77
2022-08-26T06:33:58.330Z,10.43
2022-08-26T06:36:28.326Z,7.80
2022-08-26T06:39:02.347Z,12.07
2022-08-26T06:41:31.974Z,10.20
2022-08-26T06:44:00.413Z,9.65
2022-08-26T06:46:30.045Z,9.73
2022-08-26T06:48:59.405Z,9.77
2022-08-26T06:51:30.176Z,8.15
2022-08-26T06:54:01.170Z,10.50
2022-08-26T06:56:34.643Z,12.23
2022-08-26T06:59:02.958Z,10.05
2022-08-26T07:01:33.851Z,9.55
2022-08-26T07:04:10.562Z,10.43
2022-08-26T07:06:41.477Z,9.02
2022-08-26T07:09:12.736Z,9.30
2022-08-26T07:11:42.813Z,12.88
2022-08-26T07:14:11.188Z,9.10
2022-08-26T07:16:41.177Z,11.90
2022-08-26T07:19:11.043Z,9.35
2022-08-26T07:21:41.973Z,8.85
2022-08-26T07:24:12.503Z,8.60
2022-08-26T07:26:43.179Z,14.38
2022-08-26T07:29:12.535Z,9.77
2022-08-26T07:31:42.291Z,10.98
2022-08-26T07:34:11.287Z,8.55
2022-08-26T07:36:39.718Z,10.27
2022-08-26T07:39:08.344Z,9.68
2022-08-26T07:41:38.001Z,9.63
2022-08-26T07:44:08.706Z,9.80
2022-08-26T07:46:38.267Z,10.35
2022-08-26T07:49:06.992Z,10.73
2022-08-26T07:51:35.506Z,9.15
2022-08-26T07:54:05.751Z,9.30
2022-08-26T07:56:34.308Z,6.93
2022-08-26T07:59:03.815Z,10.27
2022-08-26T08:01:45.102Z,11.15
2022-08-26T08:06:43.892Z,14.02
2022-08-26T08:09:13.127Z,10.77
2022-08-26T08:11:41.944Z,11.45
2022-08-26T08:14:14.125Z,10.23
2022-08-26T08:16:46.783Z,7.88
2022-08-26T08:19:15.552Z,9.75
2022-08-26T08:21:44.139Z,7.65
2022-08-26T08:24:12.873Z,9.18
2022-08-26T08:26:41.723Z,9.07
2022-08-26T08:29:10.375Z,10.32
2022-08-26T08:31:56.790Z,8.02
2022-08-26T08:34:27.496Z,11.80
2022-08-26T08:36:55.864Z,7.88
2022-08-26T08:39:24.304Z,11.75
2022-08-26T08:42:16.090Z,12.02
2022-08-26T08:47:26.942Z,7.93
2022-08-26T08:49:59.071Z,8.93
2022-08-26T08:52:32.133Z,9.52
2022-08-26T08:55:00.434Z,10.15
2022-08-26T08:57:38.654Z,9.32
2022-08-26T09:00:12.336Z,9.10
2022-08-26T09:02:50.419Z,11.02
2022-08-26T09:05:22.402Z,12.90
2022-08-26T09:07:55.095Z,12.93
2022-08-26T09:10:33.652Z,9.05
2022-08-26T09:13:07.119Z,8.18
2022-08-26T09:15:47.722Z,10.20
2022-08-26T09:18:31.526Z,8.25
2022-08-26T09:21:03.315Z,11.30
2022-08-26T09:23:33.012Z,9.25
2022-08-26T09:26:14.205Z,10.43
2022-08-26T09:28:46.078Z,11.52
2022-08-26T09:31:19.398Z,9.27
2022-08-26T09:33:50.030Z,7.15
2022-08-26T09:36:26.324Z,8.97
2022-08-26T09:38:55.304Z,9.10
2022-08-26T09:41:31.686Z,9.65
2022-08-26T09:44:18.003Z,8.70
2022-08-26T09:46:55.383Z,6.60
2022-08-26T09:49:37.145Z,8.52
2022-08-26T09:52:21.713Z,8.07
2022-08-26T09:55:03.687Z,9.57
2022-08-26T09:57:33.900Z,6.72
2022-08-26T10:00:03.599Z,8.15
2022-08-26T10:02:47.677Z,11.15
2022-08-26T10:05:31.102Z,9.60
2022-08-26T10:08:00.220Z,7.05
2022-08-26T10:10:34.764Z,10.32
2022-08-26T10:13:07.730Z,14.43
2022-08-26T10:15:50.702Z,8.00
2022-08-26T10:18:25.096Z,11.57
2022-08-26T10:21:02.715Z,16.73
2022-08-26T10:23:37.033Z,10.80
2022-08-26T10:26:09.775Z,6.03
2022-08-26T10:28:44.727Z,6.05
2022-08-26T10:31:28.054Z,7.30
2022-08-26T10:34:00.017Z,9.05
2022-08-26T10:39:46.040Z,8.70
2022-08-26T10:42:20.476Z,6.13
2022-08-26T10:44:52.231Z,6.90
2022-08-26T10:47:27.294Z,8.13
2022-08-26T10:50:02.868Z,7.85
2022-08-26T10:52:43.086Z,6.57
2022-08-26T10:55:17.916Z,6.85
2022-08-26T10:57:56.945Z,6.60
2022-08-26T11:00:48.309Z,6.78
2022-08-26T11:06:17.384Z,7.35
2022-08-26T11:08:49.274Z,5.18
2022-08-26T11:11:46.793Z,5.82
2022-08-26T11:14:44.639Z,6.13
2022-08-26T11:17:55.398Z,6.60
2022-08-26T11:23:38.385Z,4.75
2022-08-26T11:26:35.618Z,6.03
2022-08-26T11:29:12.105Z,4.72
2022-08-26T11:31:56.806Z,4.65
2022-08-26T11:34:54.068Z,6.88
2022-08-26T11:37:26.699Z,5.75
2022-08-26T11:39:56.884Z,7.63
2022-08-26T11:42:34.359Z,4.90
2022-08-26T11:45:05.753Z,9.18
2022-08-26T11:47:34.155Z,9.80
2022-08-26T11:50:11.159Z,6.30
2022-08-26T11:52:39.801Z,6.55
2022-08-26T11:55:11.082Z,5.50
2022-08-26T12:00:22.432Z,4.13
2022-08-26T12:02:52.450Z,8.27
2022-08-26T12:05:29.554Z,5.07
2022-08-26T12:08:05.071Z,4.22
2022-08-26T12:10:35.799Z,4.90
2022-08-26T12:13:08.027Z,4.85
2022-08-26T12:15:36.927Z,7.15
2022-08-26T12:18:29.290Z,4.05
2022-08-26T12:21:01.179Z,4.82
2022-08-26T12:26:08.440Z,6.75
2022-08-26T12:28:46.303Z,5.15
2022-08-26T12:31:22.662Z,8.20
2022-08-26T12:33:51.233Z,4.22
2022-08-26T12:36:27.437Z,11.02
2022-08-26T12:38:58.398Z,6.72
2022-08-26T12:41:48.399Z,5.72
2022-08-26T12:44:54.349Z,7.05
2022-08-26T12:47:41.766Z,6.40
2022-08-26T12:50:19.120Z,6.00
2022-08-26T12:52:57.345Z,8.32
2022-08-26T12:55:28.974Z,6.72
2022-08-26T12:58:20.508Z,5.28
2022-08-26T13:03:49.083Z,4.43
2022-08-26T13:06:29.887Z,5.78
2022-08-26T13:09:04.531Z,4.40
2022-08-26T13:11:34.735Z,6.30
2022-08-26T13:14:07.046Z,6.00
2022-08-26T13:16:37.789Z,5.82
2022-08-26T13:19:10.474Z,5.03
2022-08-26T13:21:44.005Z,4.50
2022-08-26T13:24:13.745Z,3.45
2022-08-26T13:26:44.139Z,6.28
2022-08-26T13:29:13.276Z,3.57
2022-08-26T13:31:44.950Z,3.22
2022-08-26T13:34:15.797Z,3.60
2022-08-26T13:36:44.904Z,3.75
2022-08-26T13:39:13.641Z,2.95
2022-08-26T13:41:42.407Z,3.45
2022-08-26T13:44:10.980Z,3.40
2022-08-26T13:46:39.337Z,5.35
2022-08-26T13:49:09.303Z,3.97
2022-08-26T13:51:38.452Z,3.25
2022-08-26T13:54:07.403Z,3.10
2022-08-26T13:56:36.232Z,4.03
2022-08-26T13:59:05.669Z,4.57
2022-08-26T14:01:35.706Z,5.07
2022-08-26T14:04:04.296Z,4.53
2022-08-26T14:06:33.819Z,6.13
2022-08-26T14:09:01.918Z,6.22
2022-08-26T14:11:46.711Z,5.90
2022-08-26T14:14:18.476Z,7.90
2022-08-26T14:16:58.849Z,4.85
2022-08-26T14:19:29.557Z,5.57
2022-08-26T14:22:00.779Z,4.70
2022-08-26T14:24:29.380Z,5.57
2022-08-26T14:26:57.589Z,7.88
2022-08-26T14:29:26.439Z,5.50
2022-08-26T14:31:56.111Z,6.80
2022-08-26T14:34:24.740Z,6.88
2022-08-26T14:36:52.869Z,7.95
2022-08-26T14:39:22.417Z,7.20
2022-08-26T14:41:55.124Z,4.80
2022-08-26T14:44:27.979Z,8.23
2022-08-26T14:46:56.525Z,6.93
2022-08-26T14:49:27.169Z,8.52
2022-08-26T14:51:56.439Z,8.07
2022-08-26T14:54:26.286Z,7.88
2022-08-26T14:56:56.629Z,7.63
2022-08-26T14:59:26.637Z,9.23
2022-08-26T15:01:55.766Z,10.25
2022-08-26T15:04:24.903Z,9.95
2022-08-26T15:06:54.145Z,9.80
2022-08-26T15:09:23.222Z,9.38
2022-08-26T15:11:53.124Z,10.55
2022-08-26T15:14:22.178Z,11.57
2022-08-26T15:16:52.429Z,8.68
2022-08-26T15:19:23.712Z,10.60
2022-08-26T15:24:22.207Z,8.95
2022-08-26T15:26:52.644Z,9.43
2022-08-26T15:29:22.268Z,8.70
2022-08-26T15:31:51.519Z,9.23
2022-08-26T15:34:23.277Z,13.07
2022-08-26T15:36:51.376Z,11.95
2022-08-26T15:39:20.656Z,11.50
2022-08-26T15:41:48.854Z,13.57
2022-08-26T15:44:19.683Z,12.52
2022-08-26T15:46:49.399Z,14.20
2022-08-26T15:49:18.693Z,15.55
2022-08-26T15:51:48.073Z,14.45
2022-08-26T15:54:18.059Z,15.98
2022-08-26T15:56:49.074Z,15.80
2022-08-26T15:59:19.606Z,15.25
2022-08-26T16:01:48.231Z,15.67
2022-08-26T16:04:17.572Z,18.50
2022-08-26T16:06:50.266Z,17.50
2022-08-26T16:09:19.292Z,17.58
2022-08-26T16:11:47.521Z,18.20
2022-08-26T16:14:15.933Z,17.73
2022-08-26T16:16:45.486Z,18.40
2022-08-26T16:19:13.931Z,18.30
2022-08-26T16:21:42.552Z,20.27
2022-08-26T16:24:11.945Z,19.67
2022-08-26T16:26:42.185Z,20.45
2022-08-26T16:29:12.270Z,20.00
2022-08-26T16:31:41.273Z,23.17
2022-08-26T16:34:11.871Z,20.65
2022-08-26T16:36:40.748Z,21.00
2022-08-26T16:39:09.979Z,23.85
2022-08-26T16:41:41.066Z,19.02
2022-08-26T16:44:11.390Z,19.83
2022-08-26T16:46:41.368Z,19.98
2022-08-26T16:49:11.041Z,22.15
2022-08-26T16:51:39.148Z,20.15
2022-08-26T16:54:08.878Z,19.48
2022-08-26T16:56:37.689Z,19.52
2022-08-26T16:59:07.402Z,20.45
2022-08-26T17:01:35.774Z,19.88
2022-08-26T17:04:04.418Z,17.55
2022-08-26T17:06:34.062Z,16.70
2022-08-26T17:09:02.295Z,17.33
2022-08-26T17:11:30.894Z,16.88
2022-08-26T17:13:59.225Z,17.40
2022-08-26T17:16:27.833Z,17.20
2022-08-26T17:18:57.052Z,17.23
2022-08-26T17:21:26.659Z,19.52
2022-08-26T17:23:57.565Z,20.13
2022-08-26T17:26:25.744Z,17.38
2022-08-26T17:28:53.948Z,16.45
2022-08-26T17:31:23.465Z,17.48
2022-08-26T17:33:53.365Z,16.40
2022-08-26T17:36:22.008Z,15.88
2022-08-26T17:38:50.673Z,16.35
2022-08-26T17:41:23.785Z,19.70
2022-08-26T17:43:51.943Z,16.98
2022-08-26T17:46:20.152Z,15.65
2022-08-26T17:48:48.430Z,18.13
2022-08-26T17:51:19.300Z,16.33
2022-08-26T17:53:48.707Z,15.25
2022-08-26T17:56:18.785Z,16.85
2022-08-26T17:58:51.494Z,16.52
2022-08-26T18:01:20.458Z,16.30
2022-08-26T18:03:49.088Z,15.23
2022-08-26T18:06:17.521Z,16.95
2022-08-26T18:08:46.085Z,16.20
2022-08-26T18:11:16.476Z,16.52
2022-08-26T18:13:47.031Z,14.82
2022-08-26T18:16:19.246Z,15.77
2022-08-26T18:18:48.056Z,17.70
2022-08-26T18:21:18.137Z,16.65
2022-08-26T18:23:47.500Z,14.77
2022-08-26T18:26:20.940Z,14.13
2022-08-26T18:28:49.081Z,14.88
2022-08-26T18:31:18.757Z,14.85
2022-08-26T18:33:47.136Z,16.95
2022-08-26T18:36:20.047Z,14.38
2022-08-26T18:38:50.271Z,15.82
2022-08-26T18:41:20.650Z,14.77
2022-08-26T18:43:50.359Z,14.05
2022-08-26T18:46:21.779Z,13.32
2022-08-26T18:48:50.863Z,14.05
2022-08-26T18:51:21.491Z,15.00
2022-08-26T18:53:49.701Z,15.60
2022-08-26T18:56:18.682Z,13.65
2022-08-26T18:58:47.194Z,14.93
2022-08-26T19:01:16.062Z,14.77
2022-08-26T19:03:46.364Z,13.30
2022-08-26T19:06:15.944Z,16.30
2022-08-26T19:08:44.551Z,15.65
2022-08-26T19:11:13.874Z,15.40
2022-08-26T19:13:42.559Z,14.50
2022-08-26T19:16:16.437Z,16.67
2022-08-26T19:18:46.263Z,13.57
2022-08-26T19:21:15.283Z,16.13
2022-08-26T19:23:43.843Z,16.40
2022-08-26T19:26:12.445Z,16.00
2022-08-26T19:28:41.564Z,13.90
2022-08-26T19:31:10.859Z,13.07
2022-08-26T19:33:39.541Z,15.15
2022-08-26T19:36:14.563Z,13.82
2022-08-26T19:38:43.349Z,17.38
2022-08-26T19:41:13.518Z,12.77
2022-08-26T19:43:42.149Z,18.08
2022-08-26T19:46:12.833Z,14.77
2022-08-26T19:48:43.985Z,12.27
2022-08-26T19:51:16.365Z,15.13
2022-08-26T19:53:45.174Z,15.52
2022-08-26T19:56:14.694Z,13.25
2022-08-26T19:58:43.257Z,15.38
2022-08-26T20:01:13.922Z,14.10
2022-08-26T20:03:43.608Z,13.67
2022-08-26T20:06:13.180Z,14.23
2022-08-26T20:08:44.249Z,16.25
2022-08-26T20:11:14.935Z,13.52
2022-08-26T20:13:44.061Z,16.90
2022-08-26T20:16:12.951Z,14.30
2022-08-26T20:18:59.417Z,20.88
2022-08-26T20:21:28.229Z,16.20
2022-08-26T20:24:00.598Z,15.65
2022-08-26T20:26:31.303Z,12.38
2022-08-26T20:29:00.193Z,14.10
2022-08-26T20:31:29.657Z,14.60
2022-08-26T20:33:58.263Z,13.00
2022-08-26T20:36:28.926Z,14.20
2022-08-26T20:38:58.909Z,13.93
2022-08-26T20:41:27.602Z,11.45
2022-08-26T20:43:56.616Z,14.70
2022-08-26T20:46:25.744Z,14.73
2022-08-26T20:48:54.369Z,13.25
2022-08-26T20:51:23.550Z,14.43
2022-08-26T20:53:51.799Z,13.43
2022-08-26T20:56:24.313Z,13.15
2022-08-26T20:58:54.292Z,12.73
2022-08-26T21:01:24.428Z,14.65
2022-08-26T21:03:53.501Z,15.88
2022-08-26T21:06:22.181Z,11.15
2022-08-26T21:08:51.592Z,11.88
2022-08-26T21:11:22.858Z,11.73
2022-08-26T21:14:15.709Z,13.73
2022-08-26T21:16:40.725Z,15.07
2022-08-26T21:19:11.889Z,12.45
2022-08-26T21:21:40.740Z,9.43
2022-08-26T21:24:09.116Z,11.75
2022-08-26T21:26:38.830Z,9.75
2022-08-26T21:29:09.610Z,11.23
2022-08-26T21:31:43.545Z,11.68
2022-08-26T21:34:14.601Z,12.80
2022-08-26T21:36:42.992Z,10.80
2022-08-26T21:39:12.187Z,11.20
2022-08-26T21:41:43.505Z,12.43
2022-08-26T21:44:12.651Z,11.63
2022-08-26T21:46:40.903Z,13.05
2022-08-26T21:49:11.710Z,13.00
2022-08-26T21:51:44.965Z,12.50
2022-08-26T21:54:13.937Z,12.55
2022-08-26T21:56:46.664Z,12.98
2022-08-26T21:59:16.102Z,9.88
2022-08-26T22:01:44.345Z,13.25
2022-08-26T22:04:12.662Z,10.95
2022-08-26T22:06:43.317Z,13.50
2022-08-26T22:09:12.728Z,11.90
2022-08-26T22:11:41.201Z,13.10
2022-08-26T22:14:11.043Z,11.57
2022-08-26T22:16:39.629Z,12.20
2022-08-26T22:19:08.299Z,11.88
2022-08-26T22:21:41.766Z,11.43
2022-08-26T22:24:12.333Z,11.43
2022-08-26T22:26:40.531Z,12.45
2022-08-26T22:29:10.108Z,10.35
2022-08-26T22:31:38.943Z,13.15
2022-08-26T22:34:09.302Z,11.70
2022-08-26T22:36:43.163Z,12.40
2022-08-26T22:39:12.814Z,9.65
2022-08-26T22:41:41.265Z,10.02
2022-08-26T22:44:11.966Z,14.30
2022-08-26T22:46:41.101Z,11.47
2022-08-26T22:49:10.557Z,11.07
2022-08-26T22:51:38.693Z,11.73
2022-08-26T22:54:07.328Z,9.30
2022-08-26T22:56:35.921Z,13.57
2022-08-26T22:59:04.691Z,12.57
2022-08-26T23:01:36.708Z,15.15
2022-08-26T23:04:06.192Z,9.68
2022-08-26T23:06:36.722Z,16.08
2022-08-26T23:09:05.548Z,11.13
2022-08-26T23:11:33.872Z,12.38
2022-08-26T23:14:06.216Z,13.30
2022-08-26T23:16:39.284Z,15.07
2022-08-26T23:19:08.242Z,8.77
2022-08-26T23:21:36.418Z,9.52
2022-08-26T23:24:05.340Z,9.77
2022-08-26T23:26:33.578Z,9.23
2022-08-26T23:29:01.784Z,9.23
2022-08-26T23:31:30.097Z,8.73
2022-08-26T23:34:17.355Z,8.90
2022-08-26T23:36:45.716Z,8.40
2022-08-26T23:39:15.369Z,11.23
2022-08-26T23:41:43.840Z,12.50
2022-08-26T23:44:12.729Z,12.35
2022-08-26T23:46:41.195Z,9.20
2022-08-26T23:49:10.679Z,11.02
2022-08-26T23:51:56.733Z,10.32
2022-08-26T23:54:24.828Z,9.98
2022-08-26T23:56:52.908Z,11.82
2022-08-26T23:59:21.070Z,10.70
